Route Details

Aircraft Information
Group: North America Fleet
Types: B738, B752, B762, B763
Route Data
Distance: 171nm
Duration: 1h 05m
Origin METAR: KONT 160053Z 24011G17KT 10SM FEW130 FEW200 33/13 A2978 RMK AO2 SLP066 T03330133
Dest. METAR: KLAS 160056Z 10006KT 10SM FEW100 BKN120 BKN170 BKN250 36/13 A2983 RMK AO2 SLP072 VIRGA SE CB DSNT ALQDS T03560133
Freight Data
(for Aug 16, 2022)
Load Factor:
56%
Manifested Cargo: 32,154lbs
Financial History
Total Freight: 219,472lbs
Average Load: 0lbs/flt
Fuel Used: 24,991lbs
Avg. Fuel Used: 0lbs/flt
Fuel Expense: $14,651
Avg. Fuel Expense: $0
Avg. Fuel Cost: $0/lbs
Total Gross Income: $539,901
Pilot Pay: $995
Total Expenses: $120,351
Total Revenue: $403,788
Average Revenue: $0

Capitol Logistics 485




KONT
Ontario International Airport
Ontario, California
KLAS
Harry Reid International Airport
Las Vegas, Nevada

Activity Log

Date Flight Route Aircraft Duration
07/20/2022 CPX485 SNSHN5 MISEN RNDRZ2 B738 1h 05m
07/18/2022 CPX485 SNSHN5 MISEN RNDRZ2 B738 0h 53m
07/15/2022 CPX485 SNSHN5 MISEN RNDRZ1 B763 0h 46m
07/14/2022 CPX485 SNSHN5 MISEN RNDRZ1 B763 0h 48m
07/11/2022 CPX485 SNSHN5 MISEN RNDRZ1 B738 0h 35m